Time;durP1;ratioP1;P1;durP2;ratioP2;P2;SDS_P1;SDS_P2;PMS_P1;PMS_P2;Temp;Humidity;BMP_temperature;BMP_pressure;BME280_temperature;BME280_humidity;BME280_pressure;Samples;Min_cycle;Max_cycle;Signal;HPM_P1;HPM_P2
2021/10/24 00:00:56;;;;;;;7.03;2.43;;;7.80;99.90;;;;;;4980407;28;20199;-96
2021/10/24 00:03:22;;;;;;;5.43;2.30;;;7.80;99.90;;;;;;4998554;28;20591;-94
2021/10/24 00:05:47;;;;;;;6.17;2.43;;;7.70;99.90;;;;;;4998926;28;20259;-95
2021/10/24 00:08:14;;;;;;;5.57;1.93;;;7.70;99.90;;;;;;4998243;28;20187;-95
2021/10/24 00:10:40;;;;;;;6.17;2.17;;;7.70;99.90;;;;;;5016270;28;20171;-93
2021/10/24 00:13:06;;;;;;;13.20;3.10;;;7.60;99.90;;;;;;4982876;28;20226;-96
2021/10/24 00:15:31;;;;;;;8.20;2.80;;;7.60;99.90;;;;;;4998867;28;20183;-96
2021/10/24 00:17:58;;;;;;;8.90;2.43;;;7.50;99.90;;;;;;4998134;28;20197;-96
2021/10/24 00:20:24;;;;;;;7.60;2.20;;;7.50;99.90;;;;;;5004597;28;20182;-95
2021/10/24 00:22:49;;;;;;;4.90;2.27;;;7.40;99.90;;;;;;5016901;28;20264;-93
2021/10/24 00:25:16;;;;;;;5.93;2.30;;;7.40;99.90;;;;;;5018101;28;20179;-96
2021/10/24 00:27:41;;;;;;;5.20;1.90;;;7.40;99.90;;;;;;5017205;28;20206;-96
2021/10/24 00:30:07;;;;;;;7.77;2.37;;;7.40;99.90;;;;;;5018128;28;20181;-95
2021/10/24 00:32:34;;;;;;;4.43;1.80;;;7.30;99.90;;;;;;5017771;28;20609;-95
2021/10/24 00:34:59;;;;;;;7.43;2.40;;;7.30;99.90;;;;;;5017540;28;20540;-94
2021/10/24 00:37:25;;;;;;;8.20;2.83;;;7.30;99.90;;;;;;5018006;28;20178;-96
2021/10/24 00:39:51;;;;;;;7.53;2.37;;;7.20;99.90;;;;;;5019015;28;20229;-96
2021/10/24 00:42:17;;;;;;;5.53;2.27;;;7.20;99.90;;;;;;5019039;28;20197;-96
2021/10/24 00:44:42;;;;;;;5.43;2.40;;;7.20;99.90;;;;;;5017787;28;20628;-96
2021/10/24 00:47:10;;;;;;;6.67;2.33;;;7.10;99.90;;;;;;5017675;28;20210;-95
2021/10/24 00:49:36;;;;;;;5.80;2.10;;;7.10;99.90;;;;;;5018557;28;20201;-95
2021/10/24 00:52:02;;;;;;;8.77;2.50;;;7.00;99.90;;;;;;5018051;28;20187;-96
2021/10/24 00:54:29;;;;;;;8.27;2.53;;;7.00;99.90;;;;;;5036066;28;20257;-96
2021/10/24 00:56:56;;;;;;;6.60;2.53;;;7.00;99.90;;;;;;5017270;28;20174;-96
2021/10/24 00:59:25;;;;;;;12.17;2.83;;;7.00;99.90;;;;;;5017880;28;20178;-96
2021/10/24 01:01:52;;;;;;;7.80;2.57;;;7.00;99.90;;;;;;5017118;28;20166;-96
2021/10/24 01:04:21;;;;;;;8.97;3.10;;;6.90;99.90;;;;;;5017278;28;20688;-96
2021/10/24 01:06:50;;;;;;;7.27;2.50;;;6.90;99.90;;;;;;5017773;28;20270;-95
2021/10/24 01:09:21;;;;;;;6.10;2.97;;;6.80;99.90;;;;;;5018367;28;20178;-95
2021/10/24 01:11:49;;;;;;;7.83;2.50;;;6.70;99.90;;;;;;5017585;28;20602;-94
2021/10/24 01:14:15;;;;;;;6.93;2.70;;;6.70;99.90;;;;;;5017340;28;20179;-96
2021/10/24 01:16:42;;;;;;;3.90;2.13;;;6.70;99.90;;;;;;5017496;28;20182;-94
2021/10/24 01:19:11;;;;;;;5.53;2.13;;;6.60;99.90;;;;;;5017769;28;20601;-96
2021/10/24 01:21:37;;;;;;;7.37;2.50;;;6.60;99.90;;;;;;5017312;28;20182;-96
2021/10/24 01:24:05;;;;;;;6.67;2.40;;;6.50;99.90;;;;;;5018218;28;20214;-95
2021/10/24 01:26:34;;;;;;;5.63;2.17;;;6.50;99.90;;;;;;5036127;28;20175;-94
2021/10/24 01:29:01;;;;;;;7.73;2.03;;;6.50;99.90;;;;;;5017349;28;20186;-95
2021/10/24 01:31:27;;;;;;;5.93;2.30;;;6.40;99.90;;;;;;5018594;28;20519;-95
2021/10/24 01:33:55;;;;;;;5.17;2.03;;;6.40;99.90;;;;;;5017713;28;20278;-95
2021/10/24 01:36:21;;;;;;;8.33;2.40;;;6.40;99.90;;;;;;5019932;28;20237;-95
2021/10/24 01:38:52;;;;;;;6.13;2.13;;;6.30;99.90;;;;;;5020927;28;20517;-96
2021/10/24 01:41:19;;;;;;;6.73;1.90;;;6.30;99.90;;;;;;5022624;28;20170;-95
2021/10/24 01:43:46;;;;;;;4.87;2.10;;;6.20;99.90;;;;;;5021418;28;20293;-94
2021/10/24 01:46:13;;;;;;;9.87;2.63;;;6.20;99.90;;;;;;5021070;28;20175;-94
2021/10/24 01:48:39;;;;;;;3.20;2.03;;;6.20;99.90;;;;;;5020347;28;20269;-93
2021/10/24 01:51:05;;;;;;;5.77;1.77;;;6.20;99.90;;;;;;5038294;28;20182;-94
2021/10/24 01:53:34;;;;;;;7.00;2.07;;;6.10;99.90;;;;;;5020780;28;20178;-94
2021/10/24 01:56:00;;;;;;;5.87;2.40;;;6.00;99.90;;;;;;5020685;28;20213;-92
2021/10/24 01:58:26;;;;;;;4.93;2.10;;;5.90;99.90;;;;;;5033992;28;20253;-93
2021/10/24 02:00:53;;;;;;;5.40;2.50;;;5.90;99.90;;;;;;5040535;28;20189;-92
2021/10/24 02:03:18;;;;;;;4.10;2.10;;;5.90;99.90;;;;;;5040570;28;20271;-92
2021/10/24 02:05:46;;;;;;;6.67;2.17;;;5.90;99.90;;;;;;5040202;28;20268;-92
2021/10/24 02:08:12;;;;;;;7.07;2.27;;;5.90;99.90;;;;;;5039951;28;20235;-92
2021/10/24 02:10:39;;;;;;;7.90;1.83;;;5.90;99.90;;;;;;5039927;28;20555;-93
2021/10/24 02:13:06;;;;;;;5.67;2.10;;;5.80;99.90;;;;;;5040132;28;20180;-93
2021/10/24 02:15:33;;;;;;;4.53;2.53;;;5.90;99.90;;;;;;5040280;28;20182;-92
2021/10/24 02:17:59;;;;;;;6.37;2.20;;;5.80;99.90;;;;;;5039943;28;20674;-94
2021/10/24 02:20:26;;;;;;;4.10;2.10;;;5.80;99.90;;;;;;5040015;28;20190;-93
2021/10/24 02:22:52;;;;;;;9.53;2.40;;;5.70;99.90;;;;;;5039583;28;20278;-93
2021/10/24 02:25:18;;;;;;;6.47;2.13;;;5.70;99.90;;;;;;5039895;28;20610;-92
2021/10/24 02:27:44;;;;;;;5.50;2.40;;;5.70;99.90;;;;;;5039677;28;20268;-93
2021/10/24 02:30:11;;;;;;;5.27;2.20;;;5.80;99.90;;;;;;5040451;28;20217;-96
2021/10/24 02:32:38;;;;;;;4.00;2.00;;;5.70;99.90;;;;;;5040107;28;20170;-96
2021/10/24 02:35:05;;;;;;;6.90;2.20;;;5.70;99.90;;;;;;5039853;28;20178;-93
2021/10/24 02:37:31;;;;;;;4.63;2.10;;;5.60;99.90;;;;;;5039382;28;20192;-92
2021/10/24 02:39:57;;;;;;;6.53;1.80;;;5.50;99.90;;;;;;5039675;28;20177;-94
2021/10/24 02:42:23;;;;;;;5.73;2.00;;;5.50;99.90;;;;;;5039619;28;20197;-92
2021/10/24 02:44:49;;;;;;;4.33;2.10;;;5.50;99.90;;;;;;5039914;28;20248;-93
2021/10/24 02:47:17;;;;;;;6.73;1.80;;;5.50;99.90;;;;;;5038702;28;20182;-92
2021/10/24 02:49:46;;;;;;;4.33;1.87;;;5.50;99.90;;;;;;5039759;28;20186;-92
2021/10/24 02:52:12;;;;;;;4.57;2.00;;;5.50;99.90;;;;;;5019508;28;20198;-92
2021/10/24 02:54:38;;;;;;;5.17;2.03;;;5.50;99.90;;;;;;5019256;28;20276;-93
2021/10/24 02:57:05;;;;;;;6.63;2.17;;;5.60;99.90;;;;;;5019098;28;20260;-93
2021/10/24 02:59:31;;;;;;;4.50;2.03;;;5.50;99.90;;;;;;5019560;28;20182;-93
2021/10/24 03:01:57;;;;;;;7.03;2.00;;;5.50;99.90;;;;;;5019681;28;20217;-93
2021/10/24 03:04:23;;;;;;;5.20;2.03;;;5.40;99.90;;;;;;5037148;28;20248;-94
2021/10/24 03:06:49;;;;;;;5.30;1.97;;;5.40;99.90;;;;;;5018649;28;20487;-92
2021/10/24 03:09:15;;;;;;;5.10;2.00;;;5.40;99.90;;;;;;5019081;28;20655;-93
2021/10/24 03:11:41;;;;;;;5.57;2.00;;;5.40;99.90;;;;;;5019548;28;20197;-92
2021/10/24 03:14:07;;;;;;;3.83;1.80;;;5.30;99.90;;;;;;5019355;28;20602;-95
2021/10/24 03:16:34;;;;;;;3.80;1.77;;;5.30;99.90;;;;;;5019041;28;20281;-96
2021/10/24 03:19:00;;;;;;;5.37;2.33;;;5.30;99.90;;;;;;5018832;28;20182;-94
2021/10/24 03:21:26;;;;;;;5.77;1.87;;;5.30;99.90;;;;;;5032590;28;20214;-92
2021/10/24 03:23:52;;;;;;;4.47;2.17;;;5.30;99.90;;;;;;5056565;28;20229;-92
2021/10/24 03:26:18;;;;;;;5.03;2.07;;;5.30;99.90;;;;;;5038725;28;20174;-93
2021/10/24 03:28:44;;;;;;;7.73;2.20;;;5.30;99.90;;;;;;5038412;28;20178;-93
2021/10/24 03:31:10;;;;;;;7.23;2.20;;;5.30;99.90;;;;;;5038740;28;20526;-93
2021/10/24 03:33:36;;;;;;;6.93;1.90;;;5.30;99.90;;;;;;5038632;28;20213;-92
2021/10/24 03:36:02;;;;;;;4.40;2.07;;;5.20;99.90;;;;;;5038201;28;20659;-93
2021/10/24 03:38:28;;;;;;;5.63;2.03;;;5.10;99.90;;;;;;5037986;28;20177;-93
2021/10/24 03:40:54;;;;;;;6.30;2.00;;;5.10;99.90;;;;;;5038282;28;20189;-93
2021/10/24 03:43:19;;;;;;;6.03;2.30;;;5.10;99.90;;;;;;5056551;28;20198;-92
2021/10/24 03:45:45;;;;;;;5.33;2.30;;;5.10;99.90;;;;;;5038411;28;20170;-94
2021/10/24 03:48:14;;;;;;;4.63;2.10;;;5.10;99.90;;;;;;5037968;28;20346;-92
2021/10/24 03:50:41;;;;;;;6.80;2.23;;;5.00;99.90;;;;;;5038323;28;20178;-93
2021/10/24 03:53:07;;;;;;;5.40;2.20;;;5.00;99.90;;;;;;5038126;28;20174;-94
2021/10/24 03:55:33;;;;;;;5.97;2.37;;;5.00;99.90;;;;;;5038489;28;20169;-93
2021/10/24 03:57:58;;;;;;;3.70;2.03;;;5.00;99.90;;;;;;5034769;28;20245;-96
2021/10/24 04:00:24;;;;;;;8.90;2.20;;;5.00;99.90;;;;;;5033876;28;20241;-93
2021/10/24 04:02:52;;;;;;;4.17;1.97;;;5.00;99.90;;;;;;5034523;28;20203;-95
2021/10/24 04:05:18;;;;;;;5.43;1.87;;;5.00;99.90;;;;;;5018182;28;20182;-96
2021/10/24 04:07:44;;;;;;;8.13;2.17;;;5.00;99.90;;;;;;5027985;28;20183;-94
2021/10/24 04:10:10;;;;;;;4.80;1.90;;;5.00;99.90;;;;;;5018074;28;20187;-93
2021/10/24 04:12:35;;;;;;;6.97;2.13;;;5.00;99.90;;;;;;5017990;28;20194;-93
2021/10/24 04:15:01;;;;;;;6.33;2.13;;;4.90;99.90;;;;;;5034494;28;20508;-94
2021/10/24 04:17:27;;;;;;;7.37;2.20;;;4.90;99.90;;;;;;5035213;28;20240;-93
2021/10/24 04:19:53;;;;;;;6.63;1.73;;;4.90;99.90;;;;;;5034223;28;20496;-92
2021/10/24 04:22:19;;;;;;;3.87;2.20;;;4.80;99.90;;;;;;5014527;28;20198;-95
2021/10/24 04:24:44;;;;;;;4.23;1.80;;;4.80;99.90;;;;;;5014494;28;20187;-96
2021/10/24 04:27:13;;;;;;;4.93;1.83;;;4.90;99.90;;;;;;5014361;28;20266;-95
2021/10/24 04:29:39;;;;;;;6.77;2.30;;;4.80;99.90;;;;;;5014596;28;20187;-96
2021/10/24 04:32:05;;;;;;;5.87;2.00;;;4.80;99.90;;;;;;5014415;28;20217;-96
2021/10/24 04:34:31;;;;;;;7.50;2.00;;;4.70;99.90;;;;;;5014276;28;20744;-94
2021/10/24 04:36:56;;;;;;;5.33;2.10;;;4.70;99.90;;;;;;5013878;28;20202;-91
2021/10/24 04:39:22;;;;;;;6.43;2.23;;;4.60;99.90;;;;;;5014390;28;20179;-96
2021/10/24 04:41:53;;;;;;;5.50;2.10;;;4.60;99.90;;;;;;5014310;28;20523;-91
2021/10/24 04:44:19;;;;;;;6.37;2.33;;;4.60;99.90;;;;;;5014252;28;20291;-92
2021/10/24 04:46:44;;;;;;;6.93;2.60;;;4.70;99.90;;;;;;5013821;28;20237;-91
2021/10/24 04:49:10;;;;;;;6.43;2.20;;;4.70;99.90;;;;;;5014230;28;20187;-92
2021/10/24 04:51:36;;;;;;;5.43;1.97;;;4.70;99.90;;;;;;5013981;28;20186;-92
2021/10/24 04:54:01;;;;;;;6.20;2.00;;;4.60;99.90;;;;;;5014199;28;20179;-91
2021/10/24 04:56:27;;;;;;;4.77;2.20;;;4.60;99.90;;;;;;5013955;28;20175;-91
2021/10/24 04:58:53;;;;;;;7.43;2.07;;;4.60;99.90;;;;;;5031682;28;20234;-92
2021/10/24 05:01:18;;;;;;;7.97;2.77;;;4.60;99.90;;;;;;5033541;28;20273;-91
2021/10/24 05:03:45;;;;;;;7.47;2.10;;;4.60;99.90;;;;;;5033426;28;20540;-91
2021/10/24 05:06:10;;;;;;;5.50;2.60;;;4.60;99.90;;;;;;5033586;28;20548;-91
2021/10/24 05:08:36;;;;;;;8.03;2.10;;;4.50;99.90;;;;;;5033047;28;20189;-91
2021/10/24 05:11:02;;;;;;;6.77;2.17;;;4.60;99.90;;;;;;5034321;28;20661;-92
2021/10/24 05:13:28;;;;;;;9.73;2.40;;;4.60;99.90;;;;;;5033637;28;20574;-91
2021/10/24 05:15:54;;;;;;;5.13;2.10;;;4.60;99.90;;;;;;5033425;28;20175;-91
2021/10/24 05:18:20;;;;;;;5.53;2.07;;;4.60;99.90;;;;;;5033349;28;20186;-91
2021/10/24 05:20:45;;;;;;;7.87;3.23;;;4.60;99.90;;;;;;5033511;28;20178;-92
2021/10/24 05:23:11;;;;;;;3.13;1.57;;;4.60;99.90;;;;;;5033250;28;20276;-90
2021/10/24 05:25:37;;;;;;;6.63;2.20;;;4.60;99.90;;;;;;5033638;28;20175;-92
2021/10/24 05:28:02;;;;;;;6.40;2.00;;;4.60;99.90;;;;;;5034366;28;20628;-92
2021/10/24 05:30:28;;;;;;;4.53;2.00;;;4.60;99.90;;;;;;5033151;28;20182;-91
2021/10/24 05:32:54;;;;;;;6.03;2.50;;;4.60;99.90;;;;;;5033196;28;20205;-91
2021/10/24 05:35:20;;;;;;;6.03;2.13;;;4.60;99.90;;;;;;5033481;28;20186;-92
2021/10/24 05:37:45;;;;;;;8.23;2.30;;;4.60;99.90;;;;;;5032828;28;20178;-91
2021/10/24 05:40:13;;;;;;;6.77;2.27;;;4.60;99.90;;;;;;5033422;28;20183;-91
2021/10/24 05:42:39;;;;;;;9.37;2.83;;;4.60;99.90;;;;;;5033202;28;20233;-91
2021/10/24 05:45:05;;;;;;;6.87;2.80;;;4.60;99.90;;;;;;5033276;28;20613;-91
2021/10/24 05:47:31;;;;;;;6.03;2.47;;;4.60;99.90;;;;;;5032692;28;20182;-90
2021/10/24 05:49:57;;;;;;;3.83;2.27;;;4.60;99.90;;;;;;5033179;28;20190;-92
2021/10/24 05:52:23;;;;;;;5.67;2.40;;;4.60;99.90;;;;;;5032881;28;20225;-91
2021/10/24 05:54:49;;;;;;;8.67;2.50;;;4.70;99.90;;;;;;5033126;28;20186;-91
2021/10/24 05:57:15;;;;;;;10.60;2.93;;;4.60;99.90;;;;;;5032301;28;20228;-90
2021/10/24 05:59:41;;;;;;;5.13;2.20;;;4.60;99.90;;;;;;5033290;28;20243;-92
2021/10/24 06:02:10;;;;;;;6.20;2.70;;;4.60;99.90;;;;;;5033046;28;20179;-91
2021/10/24 06:04:36;;;;;;;5.43;2.20;;;4.60;99.90;;;;;;5033423;28;20229;-92
2021/10/24 06:07:02;;;;;;;6.03;2.30;;;4.60;99.90;;;;;;5032736;28;20179;-92
2021/10/24 06:09:39;;;;;;;7.00;2.60;;;4.60;99.90;;;;;;5033061;28;20179;-91
2021/10/24 06:12:05;;;;;;;7.00;2.30;;;4.60;99.90;;;;;;5032762;28;20170;-92
2021/10/24 06:14:31;;;;;;;3.70;2.30;;;4.60;99.90;;;;;;5032896;28;20240;-91
2021/10/24 06:16:59;;;;;;;10.33;2.50;;;4.60;99.90;;;;;;5032724;28;20222;-90
2021/10/24 06:19:25;;;;;;;9.73;2.60;;;4.60;99.90;;;;;;5033436;28;20179;-90
2021/10/24 06:21:51;;;;;;;9.23;2.60;;;4.60;99.90;;;;;;5032194;28;20531;-90
2021/10/24 06:24:16;;;;;;;8.07;2.80;;;4.60;99.90;;;;;;5019527;28;20559;-92
2021/10/24 06:26:44;;;;;;;4.77;2.47;;;4.60;99.90;;;;;;5019549;28;20178;-91
2021/10/24 06:29:10;;;;;;;5.87;2.70;;;4.60;99.90;;;;;;5020144;28;20185;-91
2021/10/24 06:31:35;;;;;;;7.87;2.47;;;4.60;99.90;;;;;;5019890;28;20238;-91
2021/10/24 06:34:01;;;;;;;6.27;2.40;;;4.70;99.90;;;;;;5037667;28;20254;-91
2021/10/24 06:36:27;;;;;;;5.37;2.50;;;4.70;99.90;;;;;;5020108;28;20196;-91
2021/10/24 06:38:53;;;;;;;6.47;2.20;;;4.70;99.90;;;;;;5019415;28;20183;-96
2021/10/24 06:41:18;;;;;;;6.70;2.67;;;4.70;99.90;;;;;;5019885;28;20202;-95
2021/10/24 06:43:44;;;;;;;6.67;2.30;;;4.70;99.90;;;;;;5019750;28;20210;-95
2021/10/24 06:46:10;;;;;;;6.20;2.30;;;4.70;99.90;;;;;;5019745;28;20175;-94
2021/10/24 06:48:37;;;;;;;5.43;2.70;;;4.70;99.90;;;;;;5019673;28;20209;-91
2021/10/24 06:51:02;;;;;;;8.27;2.80;;;4.80;99.90;;;;;;5027127;28;20555;-91
2021/10/24 06:53:29;;;;;;;4.07;2.33;;;4.80;99.90;;;;;;5035816;28;20339;-90
2021/10/24 06:55:55;;;;;;;6.83;2.57;;;4.90;99.90;;;;;;5035958;28;20513;-91
2021/10/24 06:58:20;;;;;;;8.27;2.40;;;4.90;99.90;;;;;;5035366;28;20238;-90
2021/10/24 07:00:46;;;;;;;11.23;2.60;;;4.90;99.90;;;;;;5035994;28;20186;-91
2021/10/24 07:03:12;;;;;;;8.03;2.73;;;5.00;99.90;;;;;;5035763;28;20216;-91
2021/10/24 07:05:38;;;;;;;7.67;2.70;;;5.00;99.90;;;;;;5035760;28;20261;-91
2021/10/24 07:08:06;;;;;;;4.17;2.23;;;5.00;99.90;;;;;;5036339;28;20179;-91
2021/10/24 07:10:32;;;;;;;8.47;2.87;;;5.10;99.90;;;;;;5035444;28;20284;-92
2021/10/24 07:12:57;;;;;;;9.53;3.20;;;5.10;99.90;;;;;;5035587;28;20273;-90
2021/10/24 07:15:24;;;;;;;6.33;2.20;;;5.10;99.90;;;;;;5035753;28;20594;-96
2021/10/24 07:17:51;;;;;;;9.53;3.00;;;5.20;99.90;;;;;;5035187;28;20182;-96
2021/10/24 07:20:17;;;;;;;5.67;2.33;;;5.20;99.90;;;;;;5035226;28;20186;-96
2021/10/24 07:22:44;;;;;;;7.47;3.00;;;5.30;99.90;;;;;;5035038;28;20213;-95
2021/10/24 07:25:11;;;;;;;6.03;2.33;;;5.30;99.90;;;;;;5035735;28;20218;-96
2021/10/24 07:27:37;;;;;;;8.40;2.70;;;5.30;99.90;;;;;;5035202;28;20174;-95
2021/10/24 07:30:05;;;;;;;4.47;2.70;;;5.40;99.90;;;;;;5035082;28;20179;-91
2021/10/24 07:32:30;;;;;;;5.27;2.17;;;5.50;99.90;;;;;;5035408;28;20198;-91
2021/10/24 07:34:56;;;;;;;3.50;2.13;;;5.50;99.90;;;;;;5035103;28;20564;-91
2021/10/24 07:37:22;;;;;;;6.43;2.57;;;5.50;99.90;;;;;;5034650;28;20178;-91
2021/10/24 07:39:48;;;;;;;7.47;2.50;;;5.60;99.90;;;;;;5035315;28;20609;-91
2021/10/24 07:42:14;;;;;;;6.80;2.67;;;5.70;99.90;;;;;;5035556;28;20181;-91
2021/10/24 07:44:39;;;;;;;5.93;2.60;;;5.70;99.90;;;;;;5034766;28;20221;-91
2021/10/24 07:47:05;;;;;;;8.17;2.30;;;5.80;99.90;;;;;;5035043;28;20183;-92
2021/10/24 07:49:32;;;;;;;6.43;2.23;;;5.90;99.90;;;;;;5034916;28;20189;-94
2021/10/24 07:51:58;;;;;;;8.63;2.30;;;6.00;99.90;;;;;;5030331;28;20266;-94
2021/10/24 07:54:24;;;;;;;6.20;2.33;;;6.00;99.90;;;;;;5014631;28;20175;-94
2021/10/24 07:56:51;;;;;;;7.43;2.40;;;6.10;99.90;;;;;;5015100;28;20186;-96
2021/10/24 07:59:18;;;;;;;7.33;2.20;;;6.20;99.90;;;;;;5021230;28;20183;-96
2021/10/24 08:01:44;;;;;;;8.83;2.47;;;6.30;99.90;;;;;;5022765;28;20183;-96
2021/10/24 08:04:10;;;;;;;5.20;2.57;;;6.30;99.90;;;;;;5021019;28;20249;-96
2021/10/24 08:06:36;;;;;;;6.07;1.93;;;6.40;99.90;;;;;;5015676;28;20178;-96
2021/10/24 08:09:10;;;;;;;6.37;2.70;;;6.50;99.90;;;;;;5016398;28;20221;-96
2021/10/24 08:11:36;;;;;;;5.60;2.10;;;6.50;99.90;;;;;;5016361;28;20182;-96
2021/10/24 08:14:05;;;;;;;7.67;2.40;;;6.60;99.90;;;;;;5020802;28;20175;-92
2021/10/24 08:16:31;;;;;;;7.67;2.43;;;6.60;99.90;;;;;;5019585;28;20258;-93
2021/10/24 08:18:57;;;;;;;7.10;2.20;;;6.70;99.90;;;;;;5016189;28;20688;-94
2021/10/24 08:21:23;;;;;;;7.70;2.80;;;6.70;99.90;;;;;;5031470;28;20193;-95
2021/10/24 08:23:49;;;;;;;6.30;2.30;;;6.80;99.90;;;;;;5035784;28;20301;-93
2021/10/24 08:26:16;;;;;;;10.50;2.40;;;6.90;99.90;;;;;;5037260;28;20197;-93
2021/10/24 08:28:42;;;;;;;5.13;2.40;;;6.90;99.90;;;;;;5035353;28;20186;-93
2021/10/24 08:31:08;;;;;;;6.13;2.20;;;7.00;99.90;;;;;;5034447;28;20511;-92
2021/10/24 08:33:34;;;;;;;10.40;2.50;;;7.00;99.90;;;;;;5034448;28;20194;-93
2021/10/24 08:36:03;;;;;;;10.87;2.70;;;7.10;99.90;;;;;;5034478;28;20518;-92
2021/10/24 08:38:30;;;;;;;6.77;2.60;;;7.20;99.90;;;;;;5037795;28;20273;-94
2021/10/24 08:40:57;;;;;;;8.63;2.47;;;7.30;99.90;;;;;;5037624;28;20671;-94
2021/10/24 08:43:29;;;;;;;8.67;2.57;;;7.30;99.90;;;;;;5034335;28;20237;-91
2021/10/24 08:45:56;;;;;;;7.63;2.20;;;7.40;99.90;;;;;;5033536;28;20523;-92
2021/10/24 08:48:22;;;;;;;5.87;2.43;;;7.50;99.90;;;;;;5033815;28;20187;-95
2021/10/24 08:50:49;;;;;;;6.37;2.57;;;7.60;99.90;;;;;;5035577;28;20216;-93
2021/10/24 08:53:21;;;;;;;8.60;2.10;;;7.70;99.90;;;;;;5035555;28;20221;-95
2021/10/24 08:55:48;;;;;;;8.77;2.57;;;7.80;99.90;;;;;;5034383;28;20186;-96
2021/10/24 08:58:15;;;;;;;5.63;2.43;;;7.90;99.90;;;;;;5034490;28;20249;-96
2021/10/24 09:00:41;;;;;;;6.83;2.60;;;8.00;99.90;;;;;;5034170;28;20272;-91
2021/10/24 09:03:12;;;;;;;5.97;2.33;;;8.10;99.90;;;;;;5033639;28;20245;-94
2021/10/24 09:05:39;;;;;;;7.80;2.83;;;8.20;99.90;;;;;;5033961;28;20186;-92
2021/10/24 09:08:09;;;;;;;6.10;2.53;;;8.20;99.90;;;;;;5033311;28;20187;-94
2021/10/24 09:10:46;;;;;;;6.83;2.10;;;8.30;99.90;;;;;;5034728;28;20189;-94
2021/10/24 09:13:24;;;;;;;5.47;2.07;;;8.40;99.90;;;;;;5034700;28;20633;-94
2021/10/24 09:15:55;;;;;;;6.57;2.20;;;8.40;99.90;;;;;;5033900;28;20193;-92
2021/10/24 09:18:39;;;;;;;7.70;2.20;;;8.50;99.90;;;;;;5033451;28;20188;-94
2021/10/24 09:21:24;;;;;;;9.37;2.07;;;8.60;99.90;;;;;;5033803;28;20182;-94
2021/10/24 09:23:53;;;;;;;6.80;2.00;;;8.70;99.90;;;;;;5033252;28;20209;-93
2021/10/24 09:26:27;;;;;;;6.07;1.93;;;8.80;99.90;;;;;;5025632;28;20167;-94
2021/10/24 09:29:01;;;;;;;5.17;2.10;;;8.80;99.90;;;;;;5030685;28;20186;-93
2021/10/24 09:31:32;;;;;;;5.07;1.87;;;8.90;99.90;;;;;;5033065;28;20273;-96
2021/10/24 09:34:22;;;;;;;6.10;2.07;;;9.00;99.90;;;;;;5036735;28;20190;-96
2021/10/24 09:36:56;;;;;;;6.30;2.10;;;9.10;99.90;;;;;;5035979;28;20174;-93
2021/10/24 09:39:32;;;;;;;4.13;2.07;;;9.10;99.90;;;;;;5044662;28;20184;-92
2021/10/24 09:42:14;;;;;;;2.90;1.60;;;9.20;99.90;;;;;;5046084;28;20209;-92
2021/10/24 09:45:19;;;;;;;4.87;1.30;;;9.30;99.90;;;;;;5036551;28;20214;-93
2021/10/24 09:47:46;;;;;;;4.30;1.73;;;9.40;99.90;;;;;;5031652;28;20186;-94
2021/10/24 09:50:33;;;;;;;5.17;1.87;;;9.50;99.90;;;;;;5031970;28;20629;-94
2021/10/24 09:53:26;;;;;;;4.70;1.83;;;9.50;99.90;;;;;;5031152;28;20526;-95
2021/10/24 09:56:00;;;;;;;5.13;1.90;;;9.70;99.90;;;;;;5029968;28;20182;-95
2021/10/24 09:58:32;;;;;;;3.10;1.50;;;9.70;99.90;;;;;;5025220;28;20280;-96
2021/10/24 10:01:00;;;;;;;5.90;1.60;;;9.70;99.90;;;;;;5026953;28;20190;-96
2021/10/24 10:03:28;;;;;;;2.80;1.40;;;9.80;99.90;;;;;;5024749;28;20238;-96
2021/10/24 10:05:57;;;;;;;8.13;1.75;;;9.80;99.90;;;;;;5026756;28;20179;-94
2021/10/24 10:08:23;;;;;;;7.37;1.73;;;9.90;99.90;;;;;;5023190;28;20187;-92
2021/10/24 10:11:01;;;;;;;6.00;2.03;;;9.90;99.90;;;;;;5018568;28;20179;-95
2021/10/24 10:13:29;;;;;;;6.70;1.80;;;10.00;99.90;;;;;;5024149;28;20206;-96
2021/10/24 10:16:07;;;;;;;7.23;1.90;;;10.00;99.90;;;;;;5027282;28;20178;-96
2021/10/24 10:18:55;;;;;;;4.70;1.53;;;10.10;99.90;;;;;;5024088;28;20261;-95
2021/10/24 10:21:39;;;;;;;7.77;1.80;;;10.10;99.90;;;;;;5025772;28;20186;-94
2021/10/24 10:24:29;;;;;;;7.90;1.67;;;10.10;99.90;;;;;;5010047;28;20218;-94
2021/10/24 10:26:55;;;;;;;6.03;1.80;;;10.20;99.90;;;;;;5026097;28;20189;-95
2021/10/24 10:29:48;;;;;;;3.38;1.52;;;10.20;99.90;;;;;;5027039;28;20178;-94
2021/10/24 10:32:15;;;;;;;4.63;1.43;;;10.30;99.90;;;;;;5030002;28;20236;-96
2021/10/24 10:35:06;;;;;;;9.23;1.80;;;10.30;99.90;;;;;;5007708;28;20727;-95
2021/10/24 10:37:44;;;;;;;3.58;1.60;;;10.30;99.90;;;;;;5019661;28;20242;-96
2021/10/24 10:40:17;;;;;;;4.70;1.50;;;10.40;99.90;;;;;;5011240;28;20190;-95
2021/10/24 10:42:44;;;;;;;7.15;1.98;;;10.50;99.90;;;;;;5025604;28;20200;-95
2021/10/24 10:45:15;;;;;;;4.82;1.67;;;10.50;99.90;;;;;;5000703;28;20645;-95
2021/10/24 10:47:59;;;;;;;4.93;1.38;;;10.60;99.90;;;;;;5022525;28;20198;-94
2021/10/24 10:50:27;;;;;;;6.68;2.00;;;10.70;99.90;;;;;;5020028;28;20191;-94
2021/10/24 10:52:54;;;;;;;6.18;2.13;;;10.70;99.90;;;;;;5009726;28;20545;-93
2021/10/24 10:55:20;;;;;;;4.37;1.30;;;10.80;99.90;;;;;;5010608;28;20193;-94
2021/10/24 10:57:46;;;;;;;4.20;1.33;;;10.80;99.90;;;;;;5015455;28;20324;-93
2021/10/24 11:00:38;;;;;;;6.28;1.83;;;10.90;99.90;;;;;;5037970;28;20189;-93
2021/10/24 11:03:05;;;;;;;6.00;1.98;;;10.90;99.90;;;;;;5034739;28;20213;-93
2021/10/24 11:05:38;;;;;;;4.47;1.52;;;11.00;99.90;;;;;;5034631;28;20178;-95
2021/10/24 11:08:23;;;;;;;5.13;1.88;;;11.10;99.90;;;;;;5037103;28;20523;-94
2021/10/24 11:10:49;;;;;;;7.15;1.95;;;11.20;99.90;;;;;;5034147;28;20182;-95
2021/10/24 11:13:31;;;;;;;3.95;1.50;;;11.20;99.90;;;;;;5037753;28;20182;-93
2021/10/24 11:16:32;;;;;;;7.55;1.85;;;11.30;99.90;;;;;;5034748;28;20216;-94
2021/10/24 11:18:59;;;;;;;4.20;1.40;;;11.30;99.90;;;;;;5035199;28;20235;-94
2021/10/24 11:21:26;;;;;;;4.63;1.48;;;11.30;99.90;;;;;;5039834;28;20189;-96
2021/10/24 11:23:58;;;;;;;4.55;1.55;;;11.40;99.90;;;;;;5037442;28;20206;-95
2021/10/24 11:26:24;;;;;;;4.70;1.52;;;11.40;99.90;;;;;;5033587;28;20174;-94
2021/10/24 11:28:51;;;;;;;3.13;1.23;;;11.50;99.90;;;;;;5029986;28;20182;-95
2021/10/24 11:31:21;;;;;;;4.55;1.10;;;11.50;99.90;;;;;;5033735;28;20238;-96
2021/10/24 11:33:50;;;;;;;7.85;1.70;;;11.60;99.90;;;;;;5028828;28;20239;-96
2021/10/24 11:36:28;;;;;;;4.90;1.85;;;11.70;99.90;;;;;;5037514;28;20178;-95
2021/10/24 11:38:55;;;;;;;4.80;1.40;;;11.70;99.90;;;;;;5032808;28;20190;-95
2021/10/24 11:41:22;;;;;;;3.40;1.42;;;11.80;99.90;;;;;;5033733;28;20205;-94
2021/10/24 11:44:02;;;;;;;8.60;1.67;;;11.80;99.90;;;;;;5033538;28;20547;-96
2021/10/24 11:46:28;;;;;;;4.53;1.63;;;11.80;99.90;;;;;;5034330;28;20181;-96
2021/10/24 11:49:01;;;;;;;4.78;1.45;;;11.90;99.90;;;;;;5036683;28;20209;-94
2021/10/24 11:51:28;;;;;;;5.50;1.60;;;11.90;99.90;;;;;;5037244;28;20185;-95
2021/10/24 11:53:54;;;;;;;4.93;1.85;;;11.90;99.90;;;;;;5037013;28;20186;-95
2021/10/24 11:56:38;;;;;;;3.92;1.40;;;11.90;99.90;;;;;;5036610;28;20189;-95
2021/10/24 12:01:40;;;;;;;6.10;1.67;;;12.10;99.90;;;;;;5034923;28;20324;-94
2021/10/24 12:04:12;;;;;;;7.78;1.60;;;12.10;99.90;;;;;;5033376;28;20251;-95
2021/10/24 12:07:04;;;;;;;8.32;2.30;;;12.20;99.90;;;;;;5032699;28;20175;-95
2021/10/24 12:09:34;;;;;;;4.15;1.98;;;12.20;99.90;;;;;;5029695;28;20613;-96
2021/10/24 12:12:49;;;;;;;4.20;1.48;;;12.30;99.90;;;;;;5031738;28;20178;-96
2021/10/24 12:15:15;;;;;;;3.25;1.50;;;12.30;99.90;;;;;;5028380;28;20198;-96
2021/10/24 12:17:43;;;;;;;5.15;1.30;;;12.30;99.90;;;;;;5032719;28;20185;-95
2021/10/24 12:20:14;;;;;;;4.25;1.73;;;12.30;99.90;;;;;;5031211;28;20284;-96
2021/10/24 12:22:42;;;;;;;5.45;1.65;;;12.40;99.90;;;;;;5031938;28;20605;-95
2021/10/24 12:25:22;;;;;;;3.45;1.60;;;12.50;99.90;;;;;;5033025;28;20214;-95
2021/10/24 12:28:12;;;;;;;5.13;1.60;;;12.60;99.90;;;;;;5032285;28;20186;-96
2021/10/24 12:30:39;;;;;;;5.10;1.75;;;12.70;99.90;;;;;;5033218;28;20190;-96
2021/10/24 12:33:07;;;;;;;3.72;1.45;;;12.70;99.90;;;;;;5031052;28;20214;-95
2021/10/24 12:35:47;;;;;;;2.88;1.50;;;12.80;99.90;;;;;;5031073;28;20182;-96
2021/10/24 12:38:14;;;;;;;4.88;1.45;;;12.80;99.90;;;;;;5031724;28;20705;-95
2021/10/24 12:40:54;;;;;;;10.23;1.90;;;12.90;99.90;;;;;;5032983;28;20236;-95
2021/10/24 12:43:24;;;;;;;5.78;1.80;;;13.00;99.90;;;;;;5031446;28;20331;-96
2021/10/24 12:45:52;;;;;;;4.82;1.67;;;13.00;99.90;;;;;;5031468;28;20192;-96
2021/10/24 12:48:20;;;;;;;3.13;1.30;;;13.00;99.90;;;;;;5031919;28;20636;-95
2021/10/24 12:50:46;;;;;;;3.88;1.58;;;13.10;99.90;;;;;;5032513;28;20213;-95
2021/10/24 12:53:15;;;;;;;3.03;1.20;;;13.10;99.90;;;;;;5032075;28;20273;-95
2021/10/24 12:56:04;;;;;;;3.78;1.35;;;13.20;99.90;;;;;;5031618;28;20552;-94
2021/10/24 12:58:31;;;;;;;4.70;1.30;;;13.20;99.90;;;;;;5031094;28;20325;-95
2021/10/24 13:00:57;;;;;;;4.03;1.67;;;13.30;99.90;;;;;;5032390;28;20532;-94
2021/10/24 13:03:23;;;;;;;3.05;1.40;;;13.30;99.90;;;;;;5016139;28;20249;-94
2021/10/24 13:05:49;;;;;;;3.47;1.25;;;13.40;99.90;;;;;;5032841;28;20229;-95